Terminal Aerodrome Forecast
Issued by NWS

Home | Current Version | Previous Version | Text Only | Print | Product List | Glossary Off
Versions: 1 2 3 4 5 6 7 8 9 10 11 12 13 14 15 16 17 18

000
FTUS43 KICT 302300
TAFCNU
TAF
KCNU 302320Z 3100/3124 05005KT P6SM FEW025 BKN050
     FM310200 03005KT P6SM FEW025 SCT050
      TEMPO 3109/3113 4SM BR=

USA.gov is the U.S. government's official web portal to all federal, state and local government web resources and services.